createdAt,value
2019-01-23T00:02:20.484Z,92.76
2019-01-23T00:04:51.275Z,92.66
2019-01-23T00:07:22.100Z,92.08
2019-01-23T00:09:52.850Z,91.92
2019-01-23T00:12:23.714Z,91.58
2019-01-23T00:14:54.563Z,91.63
2019-01-23T00:17:25.367Z,91.43
2019-01-23T00:19:56.195Z,91.53
2019-01-23T00:22:27.013Z,91.51
2019-01-23T00:24:57.845Z,91.12
2019-01-23T00:27:28.636Z,90.66
2019-01-23T00:29:59.520Z,90.48
2019-01-23T00:32:30.271Z,90.19
2019-01-23T00:35:01.109Z,90.30
2019-01-23T00:37:31.898Z,89.94
2019-01-23T00:40:02.746Z,90.08
2019-01-23T00:42:33.560Z,90.11
2019-01-23T00:45:05.072Z,89.99
2019-01-23T00:47:35.891Z,89.69
2019-01-23T00:50:08.042Z,89.66
2019-01-23T00:52:38.854Z,89.61
2019-01-23T00:55:12.346Z,89.80
2019-01-23T00:57:43.194Z,89.79
2019-01-23T01:00:21.737Z,89.70
2019-01-23T01:02:52.706Z,89.70
2019-01-23T01:05:23.870Z,89.51
2019-01-23T01:07:54.642Z,89.13
2019-01-23T01:10:25.943Z,88.71
2019-01-23T01:12:56.770Z,88.32
2019-01-23T01:15:27.522Z,87.92
2019-01-23T01:17:58.346Z,87.75
2019-01-23T01:20:29.179Z,87.44
2019-01-23T01:22:59.954Z,87.64
2019-01-23T01:25:30.756Z,87.38
2019-01-23T01:28:01.582Z,87.29
2019-01-23T01:30:32.407Z,87.20
2019-01-23T01:33:03.200Z,86.81
2019-01-23T01:35:34.020Z,86.71
2019-01-23T01:38:04.993Z,87.00
2019-01-23T01:40:35.785Z,86.80
2019-01-23T01:43:06.679Z,86.56
2019-01-23T01:45:37.534Z,86.21
2019-01-23T01:48:08.340Z,85.98
2019-01-23T01:50:39.141Z,85.96
2019-01-23T01:53:09.997Z,86.23
2019-01-23T01:55:40.771Z,85.77
2019-01-23T01:58:11.581Z,85.36
2019-01-23T02:00:42.401Z,84.74
2019-01-23T02:03:15.554Z,84.10
2019-01-23T02:05:45.871Z,83.98
2019-01-23T02:08:16.737Z,83.71
2019-01-23T02:10:47.541Z,83.90
2019-01-23T02:13:18.381Z,83.91
2019-01-23T02:15:49.241Z,83.96
2019-01-23T02:18:20.010Z,84.44
2019-01-23T02:20:50.945Z,84.42
2019-01-23T02:23:21.779Z,84.24
2019-01-23T02:25:52.592Z,84.42
2019-01-23T02:28:23.423Z,84.36
2019-01-23T02:30:54.232Z,84.66
2019-01-23T02:33:25.027Z,85.07
2019-01-23T02:35:55.823Z,86.17
2019-01-23T02:38:26.661Z,86.80
2019-01-23T02:40:57.456Z,86.98
2019-01-23T02:43:28.218Z,87.32
2019-01-23T02:45:59.148Z,87.49
2019-01-23T02:48:29.913Z,87.79
2019-01-23T02:51:00.696Z,87.96
2019-01-23T02:53:31.526Z,88.16
2019-01-23T02:56:02.314Z,87.84
2019-01-23T02:58:33.141Z,88.06
2019-01-23T03:01:03.988Z,88.17
2019-01-23T03:03:34.821Z,88.15
2019-01-23T03:06:06.141Z,88.17
2019-01-23T03:08:36.977Z,88.24
2019-01-23T03:11:07.899Z,88.23
2019-01-23T03:13:38.660Z,88.32
2019-01-23T03:16:09.520Z,88.34
2019-01-23T03:18:40.253Z,88.53
2019-01-23T03:21:11.085Z,88.82
2019-01-23T03:23:41.953Z,89.12
2019-01-23T03:26:12.699Z,88.90
2019-01-23T03:28:43.536Z,89.23
2019-01-23T03:31:14.314Z,89.49
2019-01-23T03:33:45.137Z,89.66
2019-01-23T03:36:15.921Z,89.96
2019-01-23T03:38:46.748Z,90.02
2019-01-23T03:41:17.567Z,90.02
2019-01-23T03:43:48.436Z,90.02
2019-01-23T03:46:19.304Z,90.37
2019-01-23T03:48:50.057Z,90.54
2019-01-23T03:51:20.866Z,90.83
2019-01-23T03:53:51.635Z,90.77
2019-01-23T03:56:22.469Z,90.38
2019-01-23T03:58:53.317Z,90.37
2019-01-23T04:01:24.194Z,90.51
2019-01-23T04:03:55.028Z,90.53
2019-01-23T04:06:25.873Z,90.06
2019-01-23T04:08:56.645Z,90.17
2019-01-23T04:11:27.460Z,90.18
2019-01-23T04:13:58.236Z,90.01
2019-01-23T04:16:29.070Z,89.85
2019-01-23T04:18:59.874Z,89.36
2019-01-23T04:21:30.659Z,89.21
2019-01-23T04:24:01.459Z,89.29
2019-01-23T04:26:32.272Z,89.55
2019-01-23T04:29:03.086Z,89.61
2019-01-23T04:31:33.929Z,89.53
2019-01-23T04:34:04.902Z,89.95
2019-01-23T04:36:35.704Z,90.21
2019-01-23T04:39:09.418Z,90.41
2019-01-23T04:41:40.220Z,90.65
2019-01-23T04:44:11.005Z,91.02
2019-01-23T04:46:41.924Z,91.27
2019-01-23T04:49:12.741Z,91.68
2019-01-23T04:51:52.576Z,92.04
2019-01-23T04:54:23.437Z,92.20
2019-01-23T04:56:54.294Z,92.30
2019-01-23T04:59:25.156Z,92.14
2019-01-23T05:01:56.048Z,92.14
2019-01-23T05:04:26.929Z,92.32
2019-01-23T05:06:57.764Z,92.40
2019-01-23T05:09:28.628Z,92.44
2019-01-23T05:11:59.465Z,92.26
2019-01-23T05:14:30.261Z,92.19
2019-01-23T05:17:01.048Z,92.20
2019-01-23T05:19:31.852Z,91.95
2019-01-23T05:22:02.664Z,91.69
2019-01-23T05:24:33.453Z,91.64
2019-01-23T05:27:04.606Z,91.56
2019-01-23T05:29:35.453Z,91.35
2019-01-23T05:32:06.242Z,91.43
2019-01-23T05:34:37.060Z,91.42
2019-01-23T05:37:07.937Z,91.47
2019-01-23T05:39:38.852Z,91.52
2019-01-23T05:42:09.654Z,91.47
2019-01-23T05:44:40.462Z,91.38
2019-01-23T05:47:13.106Z,91.29
2019-01-23T05:49:43.871Z,91.41
2019-01-23T05:52:14.650Z,91.32
2019-01-23T05:54:45.524Z,91.43
2019-01-23T05:57:16.298Z,91.59
2019-01-23T05:59:47.090Z,91.73
2019-01-23T06:02:18.012Z,91.75
2019-01-23T06:04:49.108Z,91.74
2019-01-23T06:07:19.976Z,91.63
2019-01-23T06:09:55.336Z,91.74
2019-01-23T06:12:26.842Z,91.89
2019-01-23T06:14:57.604Z,92.18
2019-01-23T06:17:28.439Z,92.29
2019-01-23T06:19:59.255Z,92.53
2019-01-23T06:22:30.162Z,92.54
2019-01-23T06:25:00.970Z,92.66
2019-01-23T06:27:31.815Z,92.74
2019-01-23T06:30:09.981Z,92.33
2019-01-23T06:32:35.189Z,92.08
2019-01-23T06:35:06.595Z,92.17
2019-01-23T06:37:37.375Z,91.91
2019-01-23T06:40:10.106Z,91.05
2019-01-23T06:42:40.933Z,90.13
2019-01-23T06:45:14.260Z,90.07
2019-01-23T06:47:45.370Z,89.64
2019-01-23T06:50:21.863Z,89.27
2019-01-23T06:52:52.710Z,89.02
2019-01-23T06:55:23.611Z,88.91
2019-01-23T06:57:54.433Z,88.85
2019-01-23T07:00:26.765Z,88.71
2019-01-23T07:02:57.745Z,88.84
2019-01-23T07:05:28.579Z,88.36
2019-01-23T07:07:59.481Z,87.88
2019-01-23T07:10:30.263Z,87.55
2019-01-23T07:13:01.164Z,87.17
2019-01-23T07:15:31.970Z,87.03
2019-01-23T07:18:02.775Z,86.88
2019-01-23T07:20:33.671Z,86.42
2019-01-23T07:23:04.579Z,85.95
2019-01-23T07:25:35.399Z,85.40
2019-01-23T07:28:06.136Z,85.57
2019-01-23T07:30:43.075Z,85.79
2019-01-23T07:33:13.889Z,86.70
2019-01-23T07:35:44.727Z,86.21
2019-01-23T07:38:15.522Z,85.15
2019-01-23T07:40:46.300Z,84.79
2019-01-23T07:43:17.187Z,84.47
2019-01-23T07:45:48.000Z,84.44
2019-01-23T07:48:18.836Z,83.68
2019-01-23T07:50:49.697Z,83.54
2019-01-23T07:53:20.447Z,83.64
2019-01-23T07:55:51.280Z,83.59
2019-01-23T07:58:22.055Z,83.06
2019-01-23T08:00:52.875Z,82.78
2019-01-23T08:03:23.619Z,82.72
2019-01-23T08:05:54.411Z,82.02
2019-01-23T08:08:25.175Z,81.85
2019-01-23T08:10:55.985Z,81.80
2019-01-23T08:13:26.777Z,81.23
2019-01-23T08:15:57.591Z,81.12
2019-01-23T08:18:28.424Z,81.41
2019-01-23T08:20:59.213Z,81.41
2019-01-23T08:23:30.038Z,82.12
2019-01-23T08:26:00.853Z,81.81
2019-01-23T08:28:31.679Z,82.60
2019-01-23T08:31:02.415Z,83.44
2019-01-23T08:33:33.232Z,83.76
2019-01-23T08:36:04.040Z,83.58
2019-01-23T08:38:34.870Z,83.48
2019-01-23T08:41:05.721Z,83.44
2019-01-23T08:43:36.516Z,82.61
2019-01-23T08:46:07.534Z,81.84
2019-01-23T08:48:38.402Z,81.11
2019-01-23T08:51:09.282Z,81.17
2019-01-23T08:53:40.054Z,81.44
2019-01-23T08:56:10.880Z,80.62
2019-01-23T08:58:41.722Z,79.24
2019-01-23T09:01:12.546Z,78.71
2019-01-23T09:03:43.331Z,77.71
2019-01-23T09:06:14.113Z,78.34
2019-01-23T09:08:44.888Z,79.09
2019-01-23T09:11:15.670Z,79.07
2019-01-23T09:13:46.502Z,79.37
2019-01-23T09:16:17.269Z,78.85
2019-01-23T09:18:48.038Z,77.44
2019-01-23T09:21:21.628Z,75.73
2019-01-23T09:23:52.424Z,75.47
2019-01-23T09:26:23.233Z,77.30
2019-01-23T09:28:54.009Z,77.04
2019-01-23T09:31:56.071Z,75.71
2019-01-23T09:35:11.246Z,75.18
2019-01-23T09:38:07.446Z,76.06
2019-01-23T09:41:41.279Z,74.53
2019-01-23T09:45:16.697Z,74.20
2019-01-23T09:48:25.153Z,75.50
2019-01-23T09:51:50.393Z,74.72
2019-01-23T09:54:21.161Z,73.40
2019-01-23T09:56:51.978Z,73.98
2019-01-23T09:59:22.833Z,74.52
2019-01-23T10:01:53.702Z,73.69
2019-01-23T10:04:24.499Z,73.03
2019-01-23T10:06:55.327Z,73.07
2019-01-23T10:09:26.103Z,71.56
2019-01-23T10:11:56.879Z,71.81
2019-01-23T10:14:27.628Z,71.14
2019-01-23T10:16:58.436Z,71.08
2019-01-23T10:19:29.211Z,72.04
2019-01-23T10:22:00.041Z,72.07
2019-01-23T10:24:35.908Z,71.19
2019-01-23T10:27:03.356Z,70.36
2019-01-23T10:29:34.137Z,69.58
2019-01-23T10:32:04.950Z,69.01
2019-01-23T10:34:35.713Z,68.77
2019-01-23T10:37:06.935Z,68.39
2019-01-23T10:39:37.738Z,70.00
2019-01-23T10:42:08.601Z,69.70
2019-01-23T10:44:39.375Z,69.25
2019-01-23T10:47:10.263Z,68.64
2019-01-23T10:49:41.059Z,69.04
2019-01-23T10:52:12.057Z,69.55
2019-01-23T10:54:42.880Z,71.50
2019-01-23T10:57:13.672Z,74.00
2019-01-23T10:59:44.611Z,73.93
2019-01-23T11:02:15.405Z,72.68
2019-01-23T11:04:46.213Z,71.09
2019-01-23T11:07:17.062Z,68.63
2019-01-23T11:09:47.913Z,67.74
2019-01-23T11:12:18.691Z,66.16
2019-01-23T11:14:49.541Z,65.94
2019-01-23T11:17:20.397Z,65.96
2019-01-23T11:19:54.337Z,66.71
2019-01-23T11:22:25.112Z,66.70
2019-01-23T11:24:55.960Z,66.79
2019-01-23T11:27:26.722Z,71.32
2019-01-23T11:29:57.501Z,73.86
2019-01-23T11:32:28.293Z,74.48
2019-01-23T11:34:59.071Z,74.57
2019-01-23T11:37:29.913Z,75.13
2019-01-23T11:40:00.727Z,75.69
2019-01-23T11:42:31.458Z,74.74
2019-01-23T11:45:02.247Z,74.45
2019-01-23T11:47:33.029Z,74.90
2019-01-23T11:50:04.013Z,75.51
2019-01-23T11:52:34.813Z,76.01
2019-01-23T11:55:06.586Z,75.70
2019-01-23T11:57:37.422Z,75.66
2019-01-23T12:00:13.494Z,75.76
2019-01-23T12:02:44.421Z,75.66
2019-01-23T12:05:17.848Z,75.28
2019-01-23T12:07:49.092Z,74.96
2019-01-23T12:10:22.697Z,75.12
2019-01-23T12:12:53.872Z,74.50
2019-01-23T12:15:25.855Z,74.91
2019-01-23T12:17:56.634Z,74.56
2019-01-23T12:20:27.437Z,73.71
2019-01-23T12:22:58.250Z,73.01
2019-01-23T12:25:29.068Z,72.89
2019-01-23T12:27:59.921Z,72.16
2019-01-23T12:30:33.831Z,72.32
2019-01-23T12:33:04.891Z,72.26
2019-01-23T12:35:35.760Z,72.83
2019-01-23T12:38:06.769Z,72.39
2019-01-23T12:40:37.507Z,73.13
2019-01-23T12:43:08.312Z,71.87
2019-01-23T12:45:39.108Z,70.30
2019-01-23T12:48:09.900Z,70.48
2019-01-23T12:50:40.936Z,70.45
2019-01-23T12:53:13.446Z,69.65
2019-01-23T12:55:44.223Z,71.05
2019-01-23T12:58:15.010Z,70.04
2019-01-23T13:00:45.932Z,69.81
2019-01-23T13:03:16.774Z,71.63
2019-01-23T13:05:47.550Z,72.20
2019-01-23T13:08:18.284Z,70.86
2019-01-23T13:10:49.092Z,72.42
2019-01-23T13:13:19.936Z,71.75
2019-01-23T13:15:50.744Z,69.98
2019-01-23T13:18:21.643Z,70.76
2019-01-23T13:20:52.411Z,72.04
2019-01-23T13:23:23.253Z,73.32
2019-01-23T13:25:54.010Z,75.67
2019-01-23T13:28:24.798Z,76.22
2019-01-23T13:30:55.594Z,73.55
2019-01-23T13:33:26.425Z,71.65
2019-01-23T13:35:57.299Z,71.06
2019-01-23T13:38:28.067Z,69.85
2019-01-23T13:40:59.021Z,70.03
2019-01-23T13:43:29.848Z,70.42
2019-01-23T13:46:00.716Z,70.64
2019-01-23T13:48:31.529Z,70.49
2019-01-23T13:51:02.327Z,70.62
2019-01-23T13:53:33.111Z,71.48
2019-01-23T13:56:03.945Z,70.30
2019-01-23T13:58:41.575Z,70.12
2019-01-23T14:01:07.770Z,70.57
2019-01-23T14:03:38.685Z,71.65
2019-01-23T14:06:11.819Z,72.84
2019-01-23T14:08:42.642Z,74.06
2019-01-23T14:11:13.467Z,74.33
2019-01-23T14:13:44.218Z,73.47
2019-01-23T14:16:15.074Z,74.48
2019-01-23T14:18:46.066Z,75.31
2019-01-23T14:21:16.912Z,74.33
2019-01-23T14:23:47.736Z,74.54
2019-01-23T14:26:19.623Z,74.32
2019-01-23T14:28:50.488Z,81.58
2019-01-23T14:31:21.320Z,76.02
2019-01-23T14:33:52.263Z,72.68
2019-01-23T14:36:23.114Z,72.67
2019-01-23T14:38:54.011Z,74.46
2019-01-23T14:41:24.810Z,72.99
2019-01-23T14:43:55.659Z,73.74
2019-01-23T14:46:26.491Z,75.20
2019-01-23T14:48:57.303Z,75.53
2019-01-23T14:51:32.388Z,76.41
2019-01-23T14:54:03.371Z,77.08
2019-01-23T14:56:34.499Z,77.41
2019-01-23T14:59:05.736Z,76.40
2019-01-23T15:01:36.805Z,76.50
2019-01-23T15:04:07.765Z,77.24
2019-01-23T15:06:38.771Z,77.77
2019-01-23T15:09:10.456Z,77.81
2019-01-23T15:11:41.566Z,76.64
2019-01-23T15:14:12.743Z,76.53
2019-01-23T15:16:43.839Z,77.01
2019-01-23T15:19:15.232Z,76.56
2019-01-23T15:21:48.674Z,77.61
2019-01-23T15:24:19.703Z,77.03
2019-01-23T15:26:52.106Z,77.31
2019-01-23T15:29:24.559Z,77.41
2019-01-23T15:31:58.070Z,77.35
2019-01-23T15:34:28.979Z,77.04
2019-01-23T15:37:03.396Z,76.94
2019-01-23T15:39:35.834Z,77.11
2019-01-23T15:42:10.000Z,77.30
2019-01-23T15:44:42.229Z,77.25
2019-01-23T15:47:13.296Z,77.52
2019-01-23T15:49:49.859Z,77.35
2019-01-23T15:52:18.338Z,76.75
2019-01-23T15:54:49.455Z,76.07
2019-01-23T15:57:21.540Z,75.80
2019-01-23T15:59:52.718Z,75.75
2019-01-23T16:02:24.442Z,76.57
2019-01-23T16:04:57.014Z,76.87
2019-01-23T16:34:47.280Z,78.06
2019-01-23T16:37:25.401Z,77.84
2019-01-23T16:39:53.532Z,77.94
2019-01-23T16:42:24.817Z,77.47
2019-01-23T16:44:56.094Z,78.17
2019-01-23T16:48:02.787Z,78.14
2019-01-23T16:51:26.748Z,77.86
2019-01-23T16:53:57.856Z,78.24
2019-01-23T16:56:31.961Z,78.56
2019-01-23T16:59:04.339Z,78.65
2019-01-23T17:01:45.801Z,79.10
2019-01-23T17:04:27.863Z,79.13
2019-01-23T17:07:03.841Z,79.25
2019-01-23T17:09:34.554Z,79.72
2019-01-23T17:12:10.019Z,79.75
2019-01-23T17:16:04.389Z,79.75
2019-01-23T17:18:14.443Z,79.80
2019-01-23T17:20:56.115Z,79.73
2019-01-23T17:23:27.106Z,79.44
2019-01-23T17:25:58.078Z,79.20
2019-01-23T17:28:31.558Z,79.15
2019-01-23T17:31:05.126Z,79.13
2019-01-23T17:33:38.774Z,79.09
2019-01-23T17:36:11.346Z,78.91
2019-01-23T17:38:42.390Z,78.82
2019-01-23T17:41:13.285Z,79.04
2019-01-23T17:43:44.609Z,78.83
2019-01-23T17:46:19.394Z,78.84
2019-01-23T17:48:54.406Z,78.55
2019-01-23T17:51:25.842Z,78.27
2019-01-23T17:54:00.095Z,78.22
2019-01-23T17:56:33.054Z,78.30
2019-01-23T17:59:05.925Z,77.97
2019-01-23T18:01:37.855Z,77.80
2019-01-23T18:04:09.371Z,77.23
2019-01-23T18:06:40.966Z,77.08
2019-01-23T18:09:19.552Z,76.76
2019-01-23T18:11:49.799Z,76.99
2019-01-23T18:14:20.903Z,76.24
2019-01-23T18:16:51.727Z,76.24
2019-01-23T18:19:22.815Z,75.76
2019-01-23T18:21:53.617Z,75.33
2019-01-23T18:24:25.225Z,75.32
2019-01-23T18:26:56.920Z,75.00
2019-01-23T18:29:27.764Z,75.26
2019-01-23T18:32:10.657Z,75.12
2019-01-23T18:35:32.996Z,75.13
2019-01-23T18:39:22.070Z,74.92
2019-01-23T18:42:52.943Z,74.93
2019-01-23T18:45:57.526Z,75.02
2019-01-23T18:49:14.184Z,74.83
2019-01-23T18:52:13.080Z,74.76
2019-01-23T18:54:44.241Z,74.57
2019-01-23T18:57:20.231Z,74.08
2019-01-23T18:59:51.093Z,74.17
2019-01-23T19:02:21.985Z,73.96
2019-01-23T19:04:52.851Z,74.14
2019-01-23T19:07:23.757Z,73.67
2019-01-23T19:09:54.765Z,73.16
2019-01-23T19:12:25.650Z,73.13
2019-01-23T19:14:56.488Z,73.07
2019-01-23T19:17:27.424Z,73.05
2019-01-23T19:19:58.261Z,72.80
2019-01-23T19:22:29.101Z,72.71
2019-01-23T19:25:00.190Z,72.93
2019-01-23T19:27:31.384Z,72.83
2019-01-23T19:30:09.155Z,72.46
2019-01-23T19:32:37.054Z,72.51
2019-01-23T19:35:10.064Z,71.99
2019-01-23T19:37:40.953Z,72.21
2019-01-23T19:40:13.577Z,72.43
2019-01-23T19:42:51.531Z,72.15
2019-01-23T19:45:26.700Z,72.02
2019-01-23T19:48:11.770Z,71.96
2019-01-23T19:50:33.954Z,72.06
2019-01-23T19:53:05.081Z,71.61
2019-01-23T19:55:36.062Z,71.43
2019-01-23T19:58:07.073Z,71.23
2019-01-23T20:00:38.060Z,71.38
2019-01-23T20:03:09.101Z,71.60
2019-01-23T20:05:39.998Z,71.49
2019-01-23T20:08:11.049Z,71.78
2019-01-23T20:10:41.921Z,71.46
2019-01-23T20:13:12.870Z,71.20
2019-01-23T20:15:43.825Z,71.00
2019-01-23T20:18:14.648Z,71.32
2019-01-23T20:20:45.600Z,71.34
2019-01-23T20:23:16.539Z,71.14
2019-01-23T20:25:47.596Z,71.16
2019-01-23T20:28:19.481Z,70.75
2019-01-23T20:30:50.530Z,70.59
2019-01-23T20:33:27.732Z,70.76
2019-01-23T20:35:53.989Z,70.84
2019-01-23T20:38:24.906Z,70.75
2019-01-23T20:40:55.842Z,70.26
2019-01-23T20:43:26.917Z,70.29
2019-01-23T20:45:57.928Z,70.26
2019-01-23T20:48:29.063Z,69.86
2019-01-23T20:51:00.021Z,69.97
2019-01-23T20:53:30.908Z,69.38
2019-01-23T20:56:01.939Z,69.04
2019-01-23T20:58:32.880Z,68.68
2019-01-23T21:01:03.669Z,69.12
2019-01-23T21:03:35.138Z,69.36
2019-01-23T21:06:06.429Z,68.93
2019-01-23T21:08:37.337Z,68.37
2019-01-23T21:11:08.139Z,68.23
2019-01-23T21:13:38.951Z,68.72
2019-01-23T21:16:09.873Z,68.64
2019-01-23T21:18:40.675Z,68.49
2019-01-23T21:21:11.522Z,68.48
2019-01-23T21:23:42.363Z,68.25
2019-01-23T21:26:13.228Z,67.76
2019-01-23T21:28:44.160Z,68.18
2019-01-23T21:31:15.023Z,68.42
2019-01-23T21:33:45.872Z,68.65
2019-01-23T21:36:18.883Z,68.38
2019-01-23T21:38:49.383Z,67.69
2019-01-23T21:41:20.380Z,68.04
2019-01-23T21:43:51.202Z,68.16
2019-01-23T21:46:22.088Z,68.08
2019-01-23T21:48:52.876Z,68.01
2019-01-23T21:51:23.755Z,67.70
2019-01-23T21:53:54.608Z,67.72
2019-01-23T21:56:25.548Z,68.00
2019-01-23T21:58:56.462Z,68.29
2019-01-23T22:01:27.424Z,68.39
2019-01-23T22:03:58.292Z,68.47
2019-01-23T22:06:29.202Z,68.95
2019-01-23T22:09:00.044Z,68.25
2019-01-23T22:11:30.978Z,68.19
2019-01-23T22:14:01.835Z,68.11
2019-01-23T22:16:32.743Z,68.71
2019-01-23T22:19:03.541Z,68.55
2019-01-23T22:21:34.296Z,68.24
2019-01-23T22:24:05.080Z,68.53
2019-01-23T22:26:35.866Z,68.70
2019-01-23T22:29:06.631Z,68.75
2019-01-23T22:31:37.432Z,68.89
2019-01-23T22:34:08.429Z,68.71
2019-01-23T22:36:39.195Z,68.37
2019-01-23T22:39:11.311Z,69.06
2019-01-23T22:41:42.256Z,69.30
2019-01-23T22:44:13.098Z,69.06
2019-01-23T22:46:43.958Z,69.46
2019-01-23T22:49:14.928Z,69.10
2019-01-23T22:51:45.713Z,69.20
2019-01-23T22:54:16.615Z,68.86
2019-01-23T22:56:47.418Z,69.10
2019-01-23T22:59:18.341Z,68.74
2019-01-23T23:01:49.135Z,68.35
2019-01-23T23:04:19.888Z,68.65
2019-01-23T23:06:50.704Z,68.57
2019-01-23T23:09:21.528Z,69.22
2019-01-23T23:11:52.379Z,69.37
2019-01-23T23:14:23.202Z,69.68
2019-01-23T23:16:54.107Z,69.68
2019-01-23T23:19:24.947Z,69.75
2019-01-23T23:21:55.768Z,69.74
2019-01-23T23:24:26.611Z,69.63
2019-01-23T23:26:57.444Z,68.72
2019-01-23T23:29:28.162Z,69.18
2019-01-23T23:31:58.969Z,69.57
2019-01-23T23:34:29.879Z,69.80
2019-01-23T23:37:00.664Z,69.38
2019-01-23T23:39:31.463Z,69.30
2019-01-23T23:42:02.210Z,68.36
2019-01-23T23:44:33.061Z,68.60
2019-01-23T23:47:04.039Z,69.09
2019-01-23T23:49:34.960Z,69.41
2019-01-23T23:52:06.323Z,69.39
2019-01-23T23:54:37.223Z,68.86
2019-01-23T23:57:08.050Z,68.45
2019-01-23T23:59:38.904Z,68.53
